This is the latest recevied weather packets stored in our database for station/object KO5S. If no packets are shown the sender has not sent any weather packets the latest 10 day(s).
| Time | Temp. | Humidity | Pressure | Rain* | Wind** | Luminosity | Snow |
|---|---|---|---|---|---|---|---|
| 1777918095 | 26.11° C | 48% | 1012.6 hPa | 0 mm | - | - | - |
| 1777912697 | 25° C | 50% | 1013.2 hPa | 0 mm | - | - | - |
| 1777908517 | 23.89° C | 53% | 1013.8 hPa | 0 mm | - | - | - |
| 1777906696 | 22.78° C | 64% | 1014.1 hPa | 0 mm | - | - | - |
| 1777905497 | 21.67° C | 69% | 1014 hPa | 0 mm | - | - | - |
| 1777903697 | 20° C | 80% | 1014.3 hPa | 0 mm | - | - | - |
| 1777889317 | 9.44° C | 92% | 1013.4 hPa | 0 mm | - | - | - |
| 1777886896 | 10° C | 92% | 1013.7 hPa | 0 mm | - | - | - |
| 1777885696 | 10° C | 92% | 1013.8 hPa | 0 mm | - | - | - |
| 1777883296 | 10° C | 91% | 1013.6 hPa | 0 mm | - | - | - |
| 1777882696 | 10.56° C | 92% | 1013.5 hPa | 0 mm | - | - | - |
| 1777879696 | 10.56° C | 91% | 1013.8 hPa | 0 mm | - | - | - |
| 1777879096 | 11.11° C | 91% | 1014.1 hPa | 0 mm | - | - | - |
| 1777874898 | 11.67° C | 90% | 1014.7 hPa | 0 mm | - | - | - |
| 1777873116 | 12.22° C | 90% | 1014.7 hPa | 0 mm | - | - | - |
| 1777870695 | 12.22° C | 89% | 1015 hPa | 0 mm | - | - | - |
| 1777867695 | 12.78° C | 87% | 1014.9 hPa | 0 mm | - | - | - |
| 1777866516 | 13.33° C | 87% | 1014.9 hPa | 0 mm | - | - | - |
| 1777859895 | 16.11° C | 78% | 1014.3 hPa | 0 mm | - | - | - |
| 1777859295 | 16.11° C | 77% | 1014.2 hPa | 0 mm | - | - | - |
| 1777856296 | 18.33° C | 68% | 1013.8 hPa | 0 mm | - | - | - |
| 1777852095 | 22.22° C | 52% | 1013.2 hPa | 0 mm | - | - | - |
| 1777847895 | 23.89° C | 44% | 1013.3 hPa | 0 mm | - | - | - |
| 1777847295 | 23.89° C | 42% | 1013.4 hPa | 0 mm | - | - | - |
| 1777846695 | 24.44° C | 42% | 1013.4 hPa | 0 mm | - | - | - |
* Rain latest hour (hover to see other rain measurements)
** Current wind speed in m/s (hover to see current wind gust speed)